createdAt,value
2023-04-14T00:03:59.873Z,4.2
2023-04-14T00:09:00.025Z,4.19
2023-04-14T00:13:59.769Z,4.19
2023-04-14T00:18:59.935Z,4.2
2023-04-14T03:08:59.716Z,4.19
2023-04-14T03:18:59.754Z,4.2
2023-04-14T03:28:59.758Z,4.19
2023-04-14T03:33:59.647Z,4.2
2023-04-14T03:38:59.932Z,4.19
2023-04-14T03:43:59.614Z,4.19
2023-04-14T03:48:59.852Z,4.19
2023-04-14T03:53:59.629Z,4.19
2023-04-14T03:58:59.872Z,4.2
2023-04-14T04:03:59.650Z,4.19
2023-04-14T04:08:59.775Z,4.19
2023-04-14T04:13:59.607Z,4.2
2023-04-14T04:18:59.719Z,4.26
2023-04-14T04:23:59.608Z,4.33
2023-04-14T04:28:59.803Z,4.35
2023-04-14T04:33:59.576Z,4.33
2023-04-14T04:38:59.802Z,4.33
2023-04-14T04:43:59.584Z,4.37
2023-04-14T04:48:59.791Z,4.43
2023-04-14T04:53:59.587Z,4.42
2023-04-14T04:59:00.039Z,4.48
2023-04-14T05:03:59.570Z,4.51
2023-04-14T05:08:59.752Z,4.56
2023-04-14T05:13:59.585Z,4.58
2023-04-14T05:18:59.964Z,4.58
2023-04-14T05:23:59.568Z,4.58
2023-04-14T05:28:59.820Z,4.58
2023-04-14T05:33:59.711Z,4.55
2023-04-14T05:38:59.550Z,4.5
2023-04-14T05:43:59.857Z,4.52
2023-04-14T05:48:59.854Z,4.54
2023-04-14T05:58:59.561Z,4.64
2023-04-14T06:03:59.686Z,4.69
2023-04-14T06:08:59.833Z,4.69
2023-04-14T06:13:59.642Z,4.69
2023-04-14T06:18:59.727Z,4.72
2023-04-14T06:23:59.530Z,4.76
2023-04-14T06:28:59.761Z,4.79
2023-04-14T06:33:59.523Z,4.8
2023-04-14T06:38:59.855Z,4.84
2023-04-14T06:43:59.489Z,4.89
2023-04-14T06:48:59.830Z,4.96
2023-04-14T06:53:59.662Z,5.07
2023-04-14T06:58:59.496Z,5.12
2023-04-14T07:03:59.721Z,5.19
2023-04-14T07:08:59.483Z,5.3
2023-04-14T07:13:59.660Z,5.43
2023-04-14T07:18:59.503Z,5.58
2023-04-14T07:23:59.574Z,5.64
2023-04-14T07:28:59.487Z,5.77
2023-04-14T07:33:59.531Z,5.9
2023-04-14T07:38:59.451Z,6.01
2023-04-14T07:43:59.689Z,6.05
2023-04-14T07:48:59.464Z,6.06
2023-04-14T07:54:01.358Z,6.05
2023-04-14T07:58:59.615Z,6.13
2023-04-14T08:03:59.541Z,6.24
2023-04-14T08:08:59.535Z,6.14
2023-04-14T08:13:59.435Z,6.09
2023-04-14T08:18:59.689Z,6.13
2023-04-14T08:23:59.436Z,6.05
2023-04-14T08:28:59.569Z,5.99
2023-04-14T08:33:59.418Z,6.08
2023-04-14T08:38:59.696Z,6.22
2023-04-14T08:43:59.409Z,6.14
2023-04-14T08:48:59.597Z,6.2
2023-04-14T08:53:59.510Z,6.28
2023-04-14T08:58:59.400Z,6.4
2023-04-14T09:03:59.565Z,6.49
2023-04-14T09:08:59.409Z,6.73
2023-04-14T09:13:59.689Z,6.78
2023-04-14T09:19:01.629Z,6.91
2023-04-14T09:23:59.476Z,7.12
2023-04-14T09:28:59.566Z,7
2023-04-14T09:33:59.407Z,7
2023-04-14T09:38:59.387Z,7.11
2023-04-14T09:43:59.762Z,7.68
2023-04-14T09:48:59.365Z,7.92
2023-04-14T09:53:59.397Z,7.68
2023-04-14T09:58:59.707Z,7.7
2023-04-14T10:03:59.337Z,8.05
2023-04-14T10:08:59.578Z,8.26
2023-04-14T10:13:59.331Z,8.05
2023-04-14T10:18:59.503Z,7.95
2023-04-14T10:23:59.318Z,8
2023-04-14T10:28:59.631Z,8.05
2023-04-14T10:33:59.307Z,8.33
2023-04-14T10:38:59.670Z,8.72
2023-04-14T10:43:59.422Z,8.92
2023-04-14T10:48:59.552Z,8.9
2023-04-14T10:53:59.325Z,8.7
2023-04-14T10:58:59.442Z,9.08
2023-04-14T11:03:59.379Z,9.33
2023-04-14T11:08:59.412Z,9.45
2023-04-14T11:13:59.342Z,9.41
2023-04-14T11:18:59.375Z,9.67
2023-04-14T11:23:59.393Z,9.77
2023-04-14T11:29:04.275Z,9.79
2023-04-14T11:33:59.279Z,9.84
2023-04-14T11:38:59.598Z,9.34
2023-04-14T11:43:59.287Z,9.13
2023-04-14T11:48:59.746Z,9.23
2023-04-14T11:53:59.267Z,9.22
2023-04-14T11:58:59.521Z,9.62
2023-04-14T12:03:59.379Z,9.93
2023-04-14T12:08:59.397Z,10.55
2023-04-14T12:13:59.229Z,10.89
2023-04-14T12:18:59.208Z,10.8
2023-04-14T12:23:59.225Z,10.96
2023-04-14T12:28:59.360Z,10.91
2023-04-14T12:33:59.393Z,11.08
2023-04-14T12:38:59.311Z,11.15
2023-04-14T12:43:59.225Z,10.86
2023-04-14T12:48:59.293Z,10.5
2023-04-14T12:53:59.332Z,10.03
2023-04-14T12:58:59.197Z,9.99
2023-04-14T13:03:59.235Z,10.1
2023-04-14T13:08:59.431Z,10.12
2023-04-14T13:13:59.219Z,10.04
2023-04-14T13:18:59.375Z,9.99
2023-04-14T13:23:59.207Z,9.95
2023-04-14T13:28:59.364Z,9.33
2023-04-14T13:33:59.149Z,6.46
2023-04-14T13:38:59.360Z,5.4
2023-04-14T13:43:59.261Z,5.49
2023-04-14T13:48:59.393Z,5.75
2023-04-14T13:53:59.118Z,5.78
2023-04-14T13:59:00.474Z,6.11
2023-04-14T14:03:59.208Z,6.48
2023-04-14T14:09:06.214Z,6.92
2023-04-14T14:13:59.123Z,7.21
2023-04-14T14:18:59.166Z,7.35
2023-04-14T14:23:59.379Z,7.75
2023-04-14T14:28:59.096Z,7.92
2023-04-14T14:33:59.211Z,8
2023-04-14T14:39:07.428Z,8.39
2023-04-14T14:48:59.072Z,8.73
2023-04-14T14:54:08.635Z,8.84
2023-04-14T14:58:59.029Z,8.89
2023-04-14T17:43:58.888Z,5.97
2023-04-14T17:58:58.916Z,5.78
2023-04-14T18:03:58.934Z,5.79
2023-04-14T18:08:59.012Z,5.72
2023-04-14T18:13:58.872Z,5.64
2023-04-14T18:18:59.104Z,5.66
2023-04-14T18:28:59.029Z,5.59
2023-04-14T18:33:59.026Z,5.61
2023-04-14T18:38:59.010Z,5.59
2023-04-14T18:43:58.874Z,5.58
2023-04-14T18:48:58.937Z,5.58
2023-04-14T18:53:58.930Z,5.58
2023-04-14T19:03:58.938Z,5.57
2023-04-14T19:08:58.876Z,5.5
2023-04-14T19:13:58.860Z,5.47
2023-04-14T19:18:58.867Z,5.48
2023-04-14T19:23:58.825Z,5.47
2023-04-14T19:28:58.946Z,5.44
2023-04-14T19:34:00.513Z,5.48
2023-04-14T19:38:58.920Z,5.47
2023-04-14T19:43:58.820Z,5.48
2023-04-14T19:48:58.988Z,5.47
2023-04-14T19:53:58.814Z,5.43
2023-04-14T19:58:58.868Z,5.38
2023-04-14T20:04:04.785Z,5.32
2023-04-14T20:08:58.822Z,5.31
2023-04-14T20:13:58.812Z,5.23
2023-04-14T20:18:58.807Z,5.19
2023-04-14T20:23:58.790Z,5.15
2023-04-14T20:28:58.824Z,5.13
2023-04-14T20:33:58.793Z,5.12
2023-04-14T20:38:58.787Z,5.1
2023-04-14T20:43:58.780Z,5.11
2023-04-14T20:48:58.796Z,5.07
2023-04-14T20:53:58.787Z,5.04
2023-04-14T20:58:58.787Z,5.07
2023-04-14T21:03:58.834Z,5.07
2023-04-14T21:08:58.773Z,5.04
2023-04-14T21:15:27.988Z,5.03
2023-04-14T21:18:58.766Z,5.03
2023-04-14T21:23:58.756Z,5.04
2023-04-14T21:28:58.749Z,5.02
2023-04-14T21:33:58.750Z,4.99
2023-04-14T21:38:58.761Z,4.99
2023-04-14T21:43:58.726Z,5.02
2023-04-14T21:48:58.748Z,5.04
2023-04-14T21:53:59.089Z,5.05
2023-04-14T21:58:58.736Z,5.05
2023-04-14T22:03:58.909Z,5.07
2023-04-14T22:08:58.767Z,5.08
2023-04-14T22:13:58.716Z,5.12
2023-04-14T22:18:58.724Z,5.12
2023-04-14T22:23:58.721Z,5.14
2023-04-14T22:28:58.694Z,5.14
2023-04-14T22:33:58.694Z,5.14
2023-04-14T22:38:58.762Z,5.12
2023-04-14T22:43:58.712Z,5.07
2023-04-14T22:48:58.690Z,5.03
2023-04-14T22:53:58.678Z,5
2023-04-14T22:58:58.669Z,4.98
2023-04-14T23:03:58.746Z,4.98
2023-04-14T23:08:58.660Z,4.97
2023-04-14T23:13:58.688Z,4.95
2023-04-14T23:18:58.675Z,4.94
2023-04-14T23:23:58.655Z,4.94
2023-04-14T23:28:58.667Z,4.94
2023-04-14T23:33:58.665Z,4.94
2023-04-14T23:38:58.647Z,4.94
2023-04-14T23:43:58.645Z,4.89
2023-04-14T23:48:58.958Z,4.85
2023-04-14T23:53:58.661Z,4.81
2023-04-14T23:58:58.704Z,4.78
